Pulleys Mill, Illinois
Current Conditions -  °F | °C
As of 7:45 AM on Monday 24 Nov 2014 (Local Time) from KMWA Reporting Station
Overcast Overcast  
Wind Chill: 37°   Ceiling: 2500
Heat Index: 43°   Visibility: 10mi
Dew Point: 36°   Wind: 12mph
Humidity: 76%   Direction: 240°WSW
Pressure: 29.62"   Gusts: 22mph
Location:  37.565°N, 88.982°W
Report Text: KMWA 241345Z 24010G19KT 10SM BKN025 OVC035 06/02 A2962
Loading
Personal Weather Stations






























Interactive Weather Map New forecast layout! Learn more

10-Day Weather Forecast

Advertisements
Track Severe Weather on mobile